Red Level, Alabama
Current Conditions -  °F | °C
As of 8:56 AM on Sunday 21 Dec 2014 (Local Time) from K79J Reporting Station
Overcast Overcast  
Wind Chill: 58°   Ceiling: 2200
Heat Index: 58°   Visibility: 10mi
Dew Point: 50°   Wind: 8mph
Humidity: 75%   Direction: 110°ESE
Pressure: 30.12"   Gusts: NA
Location:  31.41°N, 86.61°W
Report Text: K79J 211456Z AUTO 11007KT 10SM OVC022 14/10 A3012 RMK AO2 SLP199 T01440100 53001
Loading
Personal Weather Stations






























Interactive Weather Map New forecast layout! Learn more

10-Day Weather Forecast

Advertisements
Track Severe Weather on mobile